sensor_id;sensor_type;location;lat;lon;timestamp;temperature;humidity
67870;DHT22;54673;52.262;6.830;2023-01-16T00:00:26;15.10;57.20
67870;DHT22;54673;52.262;6.830;2023-01-16T00:02:52;15.10;57.20
67870;DHT22;54673;52.262;6.830;2023-01-16T00:05:18;15.10;57.20
67870;DHT22;54673;52.262;6.830;2023-01-16T00:07:44;15.10;57.30
67870;DHT22;54673;52.262;6.830;2023-01-16T00:10:10;15.10;57.30
67870;DHT22;54673;52.262;6.830;2023-01-16T00:12:35;15.10;57.50
67870;DHT22;54673;52.262;6.830;2023-01-16T00:15:01;15.10;57.60
67870;DHT22;54673;52.262;6.830;2023-01-16T00:17:27;15.10;57.60
67870;DHT22;54673;52.262;6.830;2023-01-16T00:19:53;15.10;57.50
67870;DHT22;54673;52.262;6.830;2023-01-16T00:22:18;15.10;57.50
67870;DHT22;54673;52.262;6.830;2023-01-16T00:24:44;15.10;57.50
67870;DHT22;54673;52.262;6.830;2023-01-16T00:27:10;15.10;57.60
67870;DHT22;54673;52.262;6.830;2023-01-16T00:29:35;15.10;57.60
67870;DHT22;54673;52.262;6.830;2023-01-16T00:32:01;15.10;57.60
67870;DHT22;54673;52.262;6.830;2023-01-16T00:34:26;15.10;57.60
67870;DHT22;54673;52.262;6.830;2023-01-16T00:36:52;15.00;57.50
67870;DHT22;54673;52.262;6.830;2023-01-16T00:39:18;15.00;57.50
67870;DHT22;54673;52.262;6.830;2023-01-16T00:41:43;15.10;57.70
67870;DHT22;54673;52.262;6.830;2023-01-16T00:44:09;15.00;57.60
67870;DHT22;54673;52.262;6.830;2023-01-16T00:46:34;15.00;57.60
67870;DHT22;54673;52.262;6.830;2023-01-16T00:49:00;15.00;57.60
67870;DHT22;54673;52.262;6.830;2023-01-16T00:51:25;15.00;57.60
67870;DHT22;54673;52.262;6.830;2023-01-16T00:53:51;15.00;57.60
67870;DHT22;54673;52.262;6.830;2023-01-16T00:56:17;15.00;57.60
67870;DHT22;54673;52.262;6.830;2023-01-16T00:58:42;15.00;57.60
67870;DHT22;54673;52.262;6.830;2023-01-16T01:01:08;15.00;57.60
67870;DHT22;54673;52.262;6.830;2023-01-16T01:03:34;14.90;57.60
67870;DHT22;54673;52.262;6.830;2023-01-16T01:05:59;14.90;57.50
67870;DHT22;54673;52.262;6.830;2023-01-16T01:08:29;15.00;57.70
67870;DHT22;54673;52.262;6.830;2023-01-16T01:10:55;14.90;57.60
67870;DHT22;54673;52.262;6.830;2023-01-16T01:13:21;14.90;57.60
67870;DHT22;54673;52.262;6.830;2023-01-16T01:15:47;14.90;57.60
67870;DHT22;54673;52.262;6.830;2023-01-16T01:18:12;15.00;57.70
67870;DHT22;54673;52.262;6.830;2023-01-16T01:20:38;14.90;57.70
67870;DHT22;54673;52.262;6.830;2023-01-16T01:23:03;14.90;57.60
67870;DHT22;54673;52.262;6.830;2023-01-16T01:25:29;14.90;57.60
67870;DHT22;54673;52.262;6.830;2023-01-16T01:27:54;14.90;57.60
67870;DHT22;54673;52.262;6.830;2023-01-16T01:30:20;14.90;57.70
67870;DHT22;54673;52.262;6.830;2023-01-16T01:32:46;14.90;57.70
67870;DHT22;54673;52.262;6.830;2023-01-16T01:35:12;14.90;57.60
67870;DHT22;54673;52.262;6.830;2023-01-16T01:37:37;14.90;57.60
67870;DHT22;54673;52.262;6.830;2023-01-16T01:40:03;14.90;57.60
67870;DHT22;54673;52.262;6.830;2023-01-16T01:42:29;14.90;57.60
67870;DHT22;54673;52.262;6.830;2023-01-16T01:47:54;14.80;57.60
67870;DHT22;54673;52.262;6.830;2023-01-16T01:56:00;14.80;57.60
67870;DHT22;54673;52.262;6.830;2023-01-16T01:58:28;14.80;57.50
67870;DHT22;54673;52.262;6.830;2023-01-16T02:00:56;14.80;57.50
67870;DHT22;54673;52.262;6.830;2023-01-16T02:03:39;14.80;57.50
67870;DHT22;54673;52.262;6.830;2023-01-16T02:06:12;14.80;57.50
67870;DHT22;54673;52.262;6.830;2023-01-16T02:08:39;14.80;57.60
67870;DHT22;54673;52.262;6.830;2023-01-16T02:11:16;14.80;57.60
67870;DHT22;54673;52.262;6.830;2023-01-16T02:14:04;14.80;57.60
67870;DHT22;54673;52.262;6.830;2023-01-16T02:16:31;14.80;57.50
67870;DHT22;54673;52.262;6.830;2023-01-16T02:25:22;14.70;57.50
67870;DHT22;54673;52.262;6.830;2023-01-16T02:36:11;14.70;57.50
67870;DHT22;54673;52.262;6.830;2023-01-16T02:41:32;14.70;57.50
67870;DHT22;54673;52.262;6.830;2023-01-16T02:44:17;14.70;57.60
67870;DHT22;54673;52.262;6.830;2023-01-16T02:49:46;14.70;57.50
67870;DHT22;54673;52.262;6.830;2023-01-16T02:55:34;14.70;57.50
67870;DHT22;54673;52.262;6.830;2023-01-16T02:58:03;14.70;57.50
67870;DHT22;54673;52.262;6.830;2023-01-16T03:00:30;14.70;57.50
67870;DHT22;54673;52.262;6.830;2023-01-16T03:02:56;14.70;57.50
67870;DHT22;54673;52.262;6.830;2023-01-16T03:05:22;14.60;57.40
67870;DHT22;54673;52.262;6.830;2023-01-16T03:08:12;14.60;57.40
67870;DHT22;54673;52.262;6.830;2023-01-16T03:11:14;14.60;57.40
67870;DHT22;54673;52.262;6.830;2023-01-16T03:16:55;14.60;57.40
67870;DHT22;54673;52.262;6.830;2023-01-16T03:25:32;14.60;57.50
67870;DHT22;54673;52.262;6.830;2023-01-16T03:33:54;14.60;57.40
67870;DHT22;54673;52.262;6.830;2023-01-16T03:36:33;14.60;57.40
67870;DHT22;54673;52.262;6.830;2023-01-16T03:39:04;14.60;57.40
67870;DHT22;54673;52.262;6.830;2023-01-16T03:41:33;14.60;57.40
67870;DHT22;54673;52.262;6.830;2023-01-16T03:44:04;14.60;57.40
67870;DHT22;54673;52.262;6.830;2023-01-16T03:46:37;14.60;57.40
67870;DHT22;54673;52.262;6.830;2023-01-16T03:49:27;14.60;57.40
67870;DHT22;54673;52.262;6.830;2023-01-16T03:51:58;14.50;57.30
67870;DHT22;54673;52.262;6.830;2023-01-16T03:57:28;14.60;57.40
67870;DHT22;54673;52.262;6.830;2023-01-16T03:59:55;14.50;57.30
67870;DHT22;54673;52.262;6.830;2023-01-16T04:02:30;14.50;57.30
67870;DHT22;54673;52.262;6.830;2023-01-16T04:10:09;14.60;57.30
67870;DHT22;54673;52.262;6.830;2023-01-16T04:12:40;14.50;57.20
67870;DHT22;54673;52.262;6.830;2023-01-16T04:15:08;14.50;57.20
67870;DHT22;54673;52.262;6.830;2023-01-16T04:17:36;14.50;57.20
67870;DHT22;54673;52.262;6.830;2023-01-16T04:20:03;14.50;57.20
67870;DHT22;54673;52.262;6.830;2023-01-16T04:22:29;14.50;57.20
67870;DHT22;54673;52.262;6.830;2023-01-16T04:24:57;14.50;57.20
67870;DHT22;54673;52.262;6.830;2023-01-16T04:27:23;14.50;57.20
67870;DHT22;54673;52.262;6.830;2023-01-16T04:29:49;14.50;57.20
67870;DHT22;54673;52.262;6.830;2023-01-16T04:32:16;14.50;57.20
67870;DHT22;54673;52.262;6.830;2023-01-16T04:34:41;14.50;57.20
67870;DHT22;54673;52.262;6.830;2023-01-16T04:37:08;14.50;57.10
67870;DHT22;54673;52.262;6.830;2023-01-16T04:39:34;14.50;57.10
67870;DHT22;54673;52.262;6.830;2023-01-16T04:41:59;14.50;57.10
67870;DHT22;54673;52.262;6.830;2023-01-16T04:44:25;14.50;57.10
67870;DHT22;54673;52.262;6.830;2023-01-16T04:46:51;14.50;57.00
67870;DHT22;54673;52.262;6.830;2023-01-16T04:49:16;14.50;57.00
67870;DHT22;54673;52.262;6.830;2023-01-16T04:51:42;14.40;56.90
67870;DHT22;54673;52.262;6.830;2023-01-16T04:54:13;14.50;56.90
67870;DHT22;54673;52.262;6.830;2023-01-16T04:56:39;14.50;56.90
67870;DHT22;54673;52.262;6.830;2023-01-16T04:59:05;14.50;57.00
67870;DHT22;54673;52.262;6.830;2023-01-16T05:01:30;14.40;56.90
67870;DHT22;54673;52.262;6.830;2023-01-16T05:04:00;14.40;56.80
67870;DHT22;54673;52.262;6.830;2023-01-16T05:06:27;14.40;56.80
67870;DHT22;54673;52.262;6.830;2023-01-16T05:08:52;14.40;56.90
67870;DHT22;54673;52.262;6.830;2023-01-16T05:11:18;14.40;56.90
67870;DHT22;54673;52.262;6.830;2023-01-16T05:13:44;14.40;56.80
67870;DHT22;54673;52.262;6.830;2023-01-16T05:16:09;14.40;56.80
67870;DHT22;54673;52.262;6.830;2023-01-16T05:18:35;14.40;56.70
67870;DHT22;54673;52.262;6.830;2023-01-16T05:21:00;14.40;56.80
67870;DHT22;54673;52.262;6.830;2023-01-16T05:23:27;14.40;56.70
67870;DHT22;54673;52.262;6.830;2023-01-16T05:25:53;14.40;56.70
67870;DHT22;54673;52.262;6.830;2023-01-16T05:28:19;14.40;56.70
67870;DHT22;54673;52.262;6.830;2023-01-16T05:30:47;14.40;56.70
67870;DHT22;54673;52.262;6.830;2023-01-16T05:33:13;14.40;56.60
67870;DHT22;54673;52.262;6.830;2023-01-16T05:35:38;14.40;56.60
67870;DHT22;54673;52.262;6.830;2023-01-16T05:38:04;14.40;56.50
67870;DHT22;54673;52.262;6.830;2023-01-16T05:40:30;14.40;56.50
67870;DHT22;54673;52.262;6.830;2023-01-16T05:42:55;14.40;56.40
67870;DHT22;54673;52.262;6.830;2023-01-16T05:45:21;14.40;56.50
67870;DHT22;54673;52.262;6.830;2023-01-16T05:47:46;14.40;56.40
67870;DHT22;54673;52.262;6.830;2023-01-16T05:50:12;14.40;56.40
67870;DHT22;54673;52.262;6.830;2023-01-16T05:52:38;14.40;56.30
67870;DHT22;54673;52.262;6.830;2023-01-16T05:55:03;14.40;56.30
67870;DHT22;54673;52.262;6.830;2023-01-16T05:57:29;14.40;56.30
67870;DHT22;54673;52.262;6.830;2023-01-16T05:59:55;14.30;56.30
67870;DHT22;54673;52.262;6.830;2023-01-16T06:02:21;14.30;56.20
67870;DHT22;54673;52.262;6.830;2023-01-16T06:04:46;14.30;56.10
67870;DHT22;54673;52.262;6.830;2023-01-16T06:07:12;14.30;56.10
67870;DHT22;54673;52.262;6.830;2023-01-16T06:09:39;14.30;56.00
67870;DHT22;54673;52.262;6.830;2023-01-16T06:12:04;14.30;56.00
67870;DHT22;54673;52.262;6.830;2023-01-16T06:14:33;14.30;55.90
67870;DHT22;54673;52.262;6.830;2023-01-16T06:16:58;14.30;55.90
67870;DHT22;54673;52.262;6.830;2023-01-16T06:19:24;14.30;55.80
67870;DHT22;54673;52.262;6.830;2023-01-16T06:21:49;14.30;55.70
67870;DHT22;54673;52.262;6.830;2023-01-16T06:24:15;14.40;55.70
67870;DHT22;54673;52.262;6.830;2023-01-16T06:26:41;14.30;55.70
67870;DHT22;54673;52.262;6.830;2023-01-16T06:29:07;14.30;55.60
67870;DHT22;54673;52.262;6.830;2023-01-16T06:31:33;14.30;55.60
67870;DHT22;54673;52.262;6.830;2023-01-16T06:33:59;14.30;55.60
67870;DHT22;54673;52.262;6.830;2023-01-16T06:36:24;14.30;55.50
67870;DHT22;54673;52.262;6.830;2023-01-16T06:38:50;14.30;55.50
67870;DHT22;54673;52.262;6.830;2023-01-16T06:41:15;14.30;55.40
67870;DHT22;54673;52.262;6.830;2023-01-16T06:43:41;14.30;56.20
67870;DHT22;54673;52.262;6.830;2023-01-16T06:46:07;14.30;55.20
67870;DHT22;54673;52.262;6.830;2023-01-16T06:48:32;14.30;55.20
67870;DHT22;54673;52.262;6.830;2023-01-16T06:50:59;14.20;55.00
67870;DHT22;54673;52.262;6.830;2023-01-16T06:53:25;14.20;55.10
67870;DHT22;54673;52.262;6.830;2023-01-16T06:55:50;14.20;55.00
67870;DHT22;54673;52.262;6.830;2023-01-16T06:58:16;14.20;55.00
67870;DHT22;54673;52.262;6.830;2023-01-16T07:00:41;14.20;54.80
67870;DHT22;54673;52.262;6.830;2023-01-16T07:03:08;14.20;54.80
67870;DHT22;54673;52.262;6.830;2023-01-16T07:05:34;14.20;54.80
67870;DHT22;54673;52.262;6.830;2023-01-16T07:07:59;14.20;54.80
67870;DHT22;54673;52.262;6.830;2023-01-16T07:10:25;14.20;54.70
67870;DHT22;54673;52.262;6.830;2023-01-16T07:12:52;14.20;54.70
67870;DHT22;54673;52.262;6.830;2023-01-16T07:15:19;14.30;54.70
67870;DHT22;54673;52.262;6.830;2023-01-16T07:18:03;14.20;54.50
67870;DHT22;54673;52.262;6.830;2023-01-16T07:20:52;14.20;54.40
67870;DHT22;54673;52.262;6.830;2023-01-16T07:23:39;14.20;54.30
67870;DHT22;54673;52.262;6.830;2023-01-16T07:26:07;14.20;54.20
67870;DHT22;54673;52.262;6.830;2023-01-16T07:28:33;14.20;54.10
67870;DHT22;54673;52.262;6.830;2023-01-16T07:31:00;14.20;54.10
67870;DHT22;54673;52.262;6.830;2023-01-16T07:33:29;14.20;54.50
67870;DHT22;54673;52.262;6.830;2023-01-16T07:35:54;14.20;53.90
67870;DHT22;54673;52.262;6.830;2023-01-16T07:38:20;14.20;53.90
67870;DHT22;54673;52.262;6.830;2023-01-16T07:40:46;14.20;53.90
67870;DHT22;54673;52.262;6.830;2023-01-16T07:43:11;14.20;53.90
67870;DHT22;54673;52.262;6.830;2023-01-16T07:45:37;14.20;54.10
67870;DHT22;54673;52.262;6.830;2023-01-16T07:48:03;14.20;54.30
67870;DHT22;54673;52.262;6.830;2023-01-16T07:50:28;14.20;54.50
67870;DHT22;54673;52.262;6.830;2023-01-16T07:52:54;14.20;54.60
67870;DHT22;54673;52.262;6.830;2023-01-16T07:55:20;14.20;54.70
67870;DHT22;54673;52.262;6.830;2023-01-16T07:57:45;14.20;54.80
67870;DHT22;54673;52.262;6.830;2023-01-16T08:00:12;14.20;55.00
67870;DHT22;54673;52.262;6.830;2023-01-16T08:02:38;14.20;55.10
67870;DHT22;54673;52.262;6.830;2023-01-16T08:05:04;14.20;55.10
67870;DHT22;54673;52.262;6.830;2023-01-16T08:07:30;14.20;55.20
67870;DHT22;54673;52.262;6.830;2023-01-16T08:09:56;14.20;55.30
67870;DHT22;54673;52.262;6.830;2023-01-16T08:12:22;14.20;55.40
67870;DHT22;54673;52.262;6.830;2023-01-16T08:14:47;14.20;55.40
67870;DHT22;54673;52.262;6.830;2023-01-16T08:17:13;14.20;55.50
67870;DHT22;54673;52.262;6.830;2023-01-16T08:19:39;14.20;55.50
67870;DHT22;54673;52.262;6.830;2023-01-16T08:22:04;14.20;55.60
67870;DHT22;54673;52.262;6.830;2023-01-16T08:24:30;14.20;55.70
67870;DHT22;54673;52.262;6.830;2023-01-16T08:26:56;14.20;55.80
67870;DHT22;54673;52.262;6.830;2023-01-16T08:29:22;14.20;55.70
67870;DHT22;54673;52.262;6.830;2023-01-16T08:31:48;14.20;55.70
67870;DHT22;54673;52.262;6.830;2023-01-16T08:34:13;14.20;55.80
67870;DHT22;54673;52.262;6.830;2023-01-16T08:36:39;14.20;55.90
67870;DHT22;54673;52.262;6.830;2023-01-16T08:39:05;14.20;55.90
67870;DHT22;54673;52.262;6.830;2023-01-16T08:41:30;14.20;56.00
67870;DHT22;54673;52.262;6.830;2023-01-16T08:44:15;14.20;56.00
67870;DHT22;54673;52.262;6.830;2023-01-16T08:47:03;14.20;56.00
67870;DHT22;54673;52.262;6.830;2023-01-16T08:49:48;14.30;56.10
67870;DHT22;54673;52.262;6.830;2023-01-16T08:52:33;14.30;56.10
67870;DHT22;54673;52.262;6.830;2023-01-16T08:55:00;14.30;56.20
67870;DHT22;54673;52.262;6.830;2023-01-16T08:57:26;14.30;56.20
67870;DHT22;54673;52.262;6.830;2023-01-16T08:59:53;14.30;56.20
67870;DHT22;54673;52.262;6.830;2023-01-16T09:02:19;14.30;56.30
67870;DHT22;54673;52.262;6.830;2023-01-16T09:04:46;14.30;56.30
67870;DHT22;54673;52.262;6.830;2023-01-16T09:07:13;14.30;56.30
67870;DHT22;54673;52.262;6.830;2023-01-16T09:09:39;14.30;56.40
67870;DHT22;54673;52.262;6.830;2023-01-16T09:12:08;14.30;56.40
67870;DHT22;54673;52.262;6.830;2023-01-16T09:14:53;14.30;56.40
67870;DHT22;54673;52.262;6.830;2023-01-16T09:17:20;14.30;56.40
67870;DHT22;54673;52.262;6.830;2023-01-16T09:19:46;14.30;56.40
67870;DHT22;54673;52.262;6.830;2023-01-16T09:22:12;14.30;56.40
67870;DHT22;54673;52.262;6.830;2023-01-16T09:24:37;14.30;56.40
67870;DHT22;54673;52.262;6.830;2023-01-16T09:27:04;14.30;56.40
67870;DHT22;54673;52.262;6.830;2023-01-16T09:29:31;14.30;56.40
67870;DHT22;54673;52.262;6.830;2023-01-16T09:31:58;14.30;56.50
67870;DHT22;54673;52.262;6.830;2023-01-16T09:34:24;14.30;56.50
67870;DHT22;54673;52.262;6.830;2023-01-16T09:36:49;14.30;56.50
67870;DHT22;54673;52.262;6.830;2023-01-16T09:39:15;14.30;56.50
67870;DHT22;54673;52.262;6.830;2023-01-16T09:44:58;14.30;56.50
67870;DHT22;54673;52.262;6.830;2023-01-16T09:47:25;14.30;56.50
67870;DHT22;54673;52.262;6.830;2023-01-16T09:50:12;14.30;56.50
67870;DHT22;54673;52.262;6.830;2023-01-16T09:52:41;14.30;56.50
67870;DHT22;54673;52.262;6.830;2023-01-16T09:55:40;14.40;56.60
67870;DHT22;54673;52.262;6.830;2023-01-16T09:58:27;14.30;56.50
67870;DHT22;54673;52.262;6.830;2023-01-16T10:01:07;14.40;56.70
67870;DHT22;54673;52.262;6.830;2023-01-16T10:03:34;14.40;56.80
67870;DHT22;54673;52.262;6.830;2023-01-16T10:06:26;14.40;56.90
67870;DHT22;54673;52.262;6.830;2023-01-16T10:08:59;14.40;57.00
67870;DHT22;54673;52.262;6.830;2023-01-16T10:12:18;14.50;57.10
67870;DHT22;54673;52.262;6.830;2023-01-16T10:27:53;14.90;58.50
67870;DHT22;54673;52.262;6.830;2023-01-16T10:30:35;14.90;58.50
67870;DHT22;54673;52.262;6.830;2023-01-16T10:36:09;15.10;58.40
67870;DHT22;54673;52.262;6.830;2023-01-16T10:38:44;15.10;58.30
67870;DHT22;54673;52.262;6.830;2023-01-16T10:41:18;15.20;58.30
67870;DHT22;54673;52.262;6.830;2023-01-16T10:44:32;15.30;58.10
67870;DHT22;54673;52.262;6.830;2023-01-16T10:47:28;15.40;58.00
67870;DHT22;54673;52.262;6.830;2023-01-16T10:50:14;15.40;57.90
67870;DHT22;54673;52.262;6.830;2023-01-16T10:52:40;15.50;58.00
67870;DHT22;54673;52.262;6.830;2023-01-16T10:55:07;15.50;57.90
67870;DHT22;54673;52.262;6.830;2023-01-16T10:57:34;15.60;57.80
67870;DHT22;54673;52.262;6.830;2023-01-16T11:00:11;15.60;57.70
67870;DHT22;54673;52.262;6.830;2023-01-16T11:02:40;15.70;57.60
67870;DHT22;54673;52.262;6.830;2023-01-16T11:05:30;15.70;57.60
67870;DHT22;54673;52.262;6.830;2023-01-16T11:08:01;15.80;57.50
67870;DHT22;54673;52.262;6.830;2023-01-16T11:10:29;15.80;57.40
67870;DHT22;54673;52.262;6.830;2023-01-16T11:12:55;15.90;57.10
67870;DHT22;54673;52.262;6.830;2023-01-16T11:15:39;15.90;56.90
67870;DHT22;54673;52.262;6.830;2023-01-16T11:18:30;15.90;57.00
67870;DHT22;54673;52.262;6.830;2023-01-16T11:21:12;15.90;57.10
67870;DHT22;54673;52.262;6.830;2023-01-16T11:23:42;16.00;57.10
67870;DHT22;54673;52.262;6.830;2023-01-16T11:26:09;16.00;57.00
67870;DHT22;54673;52.262;6.830;2023-01-16T11:28:36;16.30;57.10
67870;DHT22;54673;52.262;6.830;2023-01-16T11:31:07;16.10;57.00
67870;DHT22;54673;52.262;6.830;2023-01-16T11:33:38;16.10;56.90
67870;DHT22;54673;52.262;6.830;2023-01-16T11:36:07;16.20;56.80
67870;DHT22;54673;52.262;6.830;2023-01-16T11:38:35;16.20;56.70
67870;DHT22;54673;52.262;6.830;2023-01-16T11:41:04;16.20;56.70
67870;DHT22;54673;52.262;6.830;2023-01-16T11:43:33;16.30;56.60
67870;DHT22;54673;52.262;6.830;2023-01-16T11:46:38;16.30;56.50
67870;DHT22;54673;52.262;6.830;2023-01-16T11:49:23;16.30;56.40
67870;DHT22;54673;52.262;6.830;2023-01-16T11:51:53;16.30;56.00
67870;DHT22;54673;52.262;6.830;2023-01-16T11:54:26;16.30;56.10
67870;DHT22;54673;52.262;6.830;2023-01-16T11:57:14;16.20;55.80
67870;DHT22;54673;52.262;6.830;2023-01-16T11:59:47;16.20;55.80
67870;DHT22;54673;52.262;6.830;2023-01-16T12:08:43;16.10;55.70
67870;DHT22;54673;52.262;6.830;2023-01-16T12:14:21;16.00;55.60
67870;DHT22;54673;52.262;6.830;2023-01-16T12:19:54;15.90;55.80
67870;DHT22;54673;52.262;6.830;2023-01-16T12:25:27;15.90;55.90
67870;DHT22;54673;52.262;6.830;2023-01-16T12:31:42;15.80;55.90
67870;DHT22;54673;52.262;6.830;2023-01-16T12:37:12;15.70;56.10
67870;DHT22;54673;52.262;6.830;2023-01-16T12:56:56;15.40;56.70
67870;DHT22;54673;52.262;6.830;2023-01-16T12:59:28;15.40;56.80
67870;DHT22;54673;52.262;6.830;2023-01-16T13:04:48;15.40;56.80
67870;DHT22;54673;52.262;6.830;2023-01-16T13:07:16;15.30;56.80
67870;DHT22;54673;52.262;6.830;2023-01-16T13:10:19;15.30;57.00
67870;DHT22;54673;52.262;6.830;2023-01-16T13:13:13;15.30;57.00
67870;DHT22;54673;52.262;6.830;2023-01-16T13:18:47;15.30;57.00
67870;DHT22;54673;52.262;6.830;2023-01-16T13:21:22;15.30;57.10
67870;DHT22;54673;52.262;6.830;2023-01-16T13:24:08;15.30;57.10
67870;DHT22;54673;52.262;6.830;2023-01-16T13:26:35;15.20;57.10
67870;DHT22;54673;52.262;6.830;2023-01-16T13:29:20;15.20;57.10
67870;DHT22;54673;52.262;6.830;2023-01-16T13:32:13;15.20;58.10
67870;DHT22;54673;52.262;6.830;2023-01-16T13:34:43;15.20;57.20
67870;DHT22;54673;52.262;6.830;2023-01-16T13:40:19;15.10;57.20
67870;DHT22;54673;52.262;6.830;2023-01-16T13:42:59;15.10;57.30
67870;DHT22;54673;52.262;6.830;2023-01-16T13:45:47;15.10;57.30
67870;DHT22;54673;52.262;6.830;2023-01-16T13:48:18;15.10;57.40
67870;DHT22;54673;52.262;6.830;2023-01-16T13:50:52;15.10;57.40
67870;DHT22;54673;52.262;6.830;2023-01-16T13:53:19;15.00;57.40
67870;DHT22;54673;52.262;6.830;2023-01-16T13:55:48;15.00;57.40
67870;DHT22;54673;52.262;6.830;2023-01-16T13:58:21;15.10;57.50
67870;DHT22;54673;52.262;6.830;2023-01-16T14:01:00;15.00;57.50
67870;DHT22;54673;52.262;6.830;2023-01-16T14:03:31;15.00;57.60
67870;DHT22;54673;52.262;6.830;2023-01-16T14:06:20;15.00;57.60
67870;DHT22;54673;52.262;6.830;2023-01-16T14:09:24;14.90;57.60
67870;DHT22;54673;52.262;6.830;2023-01-16T14:12:01;14.90;57.70
67870;DHT22;54673;52.262;6.830;2023-01-16T14:23:22;14.90;57.80
67870;DHT22;54673;52.262;6.830;2023-01-16T14:26:08;14.90;57.80
67870;DHT22;54673;52.262;6.830;2023-01-16T14:28:35;14.90;57.90
67870;DHT22;54673;52.262;6.830;2023-01-16T14:31:03;14.90;57.80
67870;DHT22;54673;52.262;6.830;2023-01-16T14:33:29;14.80;57.80
67870;DHT22;54673;52.262;6.830;2023-01-16T14:35:57;14.90;57.90
67870;DHT22;54673;52.262;6.830;2023-01-16T14:38:27;14.80;57.90
67870;DHT22;54673;52.262;6.830;2023-01-16T14:40:58;14.80;57.90
67870;DHT22;54673;52.262;6.830;2023-01-16T14:44:02;14.80;57.90
67870;DHT22;54673;52.262;6.830;2023-01-16T14:46:53;14.80;57.90
67870;DHT22;54673;52.262;6.830;2023-01-16T14:49:44;14.80;57.90
67870;DHT22;54673;52.262;6.830;2023-01-16T14:55:48;14.80;57.90
67870;DHT22;54673;52.262;6.830;2023-01-16T14:59:02;14.80;57.90
67870;DHT22;54673;52.262;6.830;2023-01-16T15:01:17;14.80;58.00
67870;DHT22;54673;52.262;6.830;2023-01-16T15:04:04;14.80;58.00
67870;DHT22;54673;52.262;6.830;2023-01-16T15:06:36;14.80;57.90
67870;DHT22;54673;52.262;6.830;2023-01-16T15:09:03;14.80;57.90
67870;DHT22;54673;52.262;6.830;2023-01-16T15:11:31;14.80;57.90
67870;DHT22;54673;52.262;6.830;2023-01-16T15:14:17;14.80;58.00
67870;DHT22;54673;52.262;6.830;2023-01-16T15:23:18;14.80;58.00
67870;DHT22;54673;52.262;6.830;2023-01-16T15:26:01;14.70;57.90
67870;DHT22;54673;52.262;6.830;2023-01-16T15:31:18;14.70;58.00
67870;DHT22;54673;52.262;6.830;2023-01-16T15:33:49;14.70;58.00
67870;DHT22;54673;52.262;6.830;2023-01-16T15:36:37;14.70;58.00
67870;DHT22;54673;52.262;6.830;2023-01-16T15:44:44;14.70;58.00
67870;DHT22;54673;52.262;6.830;2023-01-16T15:52:37;14.70;58.00
67870;DHT22;54673;52.262;6.830;2023-01-16T15:55:24;14.70;58.00
67870;DHT22;54673;52.262;6.830;2023-01-16T15:57:54;14.70;58.00
67870;DHT22;54673;52.262;6.830;2023-01-16T16:00:40;14.70;58.00
67870;DHT22;54673;52.262;6.830;2023-01-16T16:03:19;14.60;58.00
67870;DHT22;54673;52.262;6.830;2023-01-16T16:05:54;14.60;58.80
67870;DHT22;54673;52.262;6.830;2023-01-16T16:08:23;14.60;58.00
67870;DHT22;54673;52.262;6.830;2023-01-16T16:10:52;14.60;58.00
67870;DHT22;54673;52.262;6.830;2023-01-16T16:13:37;14.60;57.90
67870;DHT22;54673;52.262;6.830;2023-01-16T16:16:21;14.60;57.90
67870;DHT22;54673;52.262;6.830;2023-01-16T16:19:06;14.60;57.90
67870;DHT22;54673;52.262;6.830;2023-01-16T16:21:45;14.60;58.00
67870;DHT22;54673;52.262;6.830;2023-01-16T16:24:36;14.70;57.90
67870;DHT22;54673;52.262;6.830;2023-01-16T16:27:07;14.60;58.00
67870;DHT22;54673;52.262;6.830;2023-01-16T16:29:36;14.60;57.90
67870;DHT22;54673;52.262;6.830;2023-01-16T16:32:09;14.60;57.90
67870;DHT22;54673;52.262;6.830;2023-01-16T16:34:36;14.70;58.00
67870;DHT22;54673;52.262;6.830;2023-01-16T16:37:09;14.60;57.90
67870;DHT22;54673;52.262;6.830;2023-01-16T16:39:41;14.60;57.90
67870;DHT22;54673;52.262;6.830;2023-01-16T16:47:40;14.60;58.00
67870;DHT22;54673;52.262;6.830;2023-01-16T16:50:32;14.60;58.00
67870;DHT22;54673;52.262;6.830;2023-01-16T16:53:24;14.60;58.00
67870;DHT22;54673;52.262;6.830;2023-01-16T16:56:06;14.60;58.10
67870;DHT22;54673;52.262;6.830;2023-01-16T16:58:42;14.60;58.10
67870;DHT22;54673;52.262;6.830;2023-01-16T17:01:14;14.60;58.10
67870;DHT22;54673;52.262;6.830;2023-01-16T17:03:41;14.60;58.10
67870;DHT22;54673;52.262;6.830;2023-01-16T17:06:13;14.60;58.10
67870;DHT22;54673;52.262;6.830;2023-01-16T17:08:39;14.60;58.10
67870;DHT22;54673;52.262;6.830;2023-01-16T17:11:04;14.50;58.10
67870;DHT22;54673;52.262;6.830;2023-01-16T17:13:30;14.60;58.10
67870;DHT22;54673;52.262;6.830;2023-01-16T17:15:57;14.60;58.10
67870;DHT22;54673;52.262;6.830;2023-01-16T17:18:25;14.60;58.10
67870;DHT22;54673;52.262;6.830;2023-01-16T17:20:51;14.60;58.10
67870;DHT22;54673;52.262;6.830;2023-01-16T17:23:19;14.60;58.10
67870;DHT22;54673;52.262;6.830;2023-01-16T17:25:45;14.60;58.20
67870;DHT22;54673;52.262;6.830;2023-01-16T17:28:12;14.60;58.20
67870;DHT22;54673;52.262;6.830;2023-01-16T17:30:39;14.60;59.00
67870;DHT22;54673;52.262;6.830;2023-01-16T17:33:19;14.60;58.10
67870;DHT22;54673;52.262;6.830;2023-01-16T17:35:47;14.50;58.10
67870;DHT22;54673;52.262;6.830;2023-01-16T17:38:24;14.60;58.10
67870;DHT22;54673;52.262;6.830;2023-01-16T17:40:49;14.60;58.20
67870;DHT22;54673;52.262;6.830;2023-01-16T17:43:16;14.60;58.20
67870;DHT22;54673;52.262;6.830;2023-01-16T17:46:27;14.50;58.10
67870;DHT22;54673;52.262;6.830;2023-01-16T17:48:53;14.50;58.10
67870;DHT22;54673;52.262;6.830;2023-01-16T17:51:18;14.50;58.10
67870;DHT22;54673;52.262;6.830;2023-01-16T17:53:50;14.50;58.20
67870;DHT22;54673;52.262;6.830;2023-01-16T17:56:15;14.50;58.10
67870;DHT22;54673;52.262;6.830;2023-01-16T17:58:42;14.50;58.10
67870;DHT22;54673;52.262;6.830;2023-01-16T18:01:29;14.50;58.10
67870;DHT22;54673;52.262;6.830;2023-01-16T18:03:58;14.50;58.50
67870;DHT22;54673;52.262;6.830;2023-01-16T18:06:36;14.60;58.20
67870;DHT22;54673;52.262;6.830;2023-01-16T18:09:03;14.50;58.10
67870;DHT22;54673;52.262;6.830;2023-01-16T18:11:38;14.50;58.10
67870;DHT22;54673;52.262;6.830;2023-01-16T18:14:23;14.50;58.10
67870;DHT22;54673;52.262;6.830;2023-01-16T18:17:10;14.50;58.10
67870;DHT22;54673;52.262;6.830;2023-01-16T18:19:53;14.50;58.20
67870;DHT22;54673;52.262;6.830;2023-01-16T18:22:21;14.50;58.10
67870;DHT22;54673;52.262;6.830;2023-01-16T18:24:47;14.50;58.20
67870;DHT22;54673;52.262;6.830;2023-01-16T18:27:16;14.50;58.10
67870;DHT22;54673;52.262;6.830;2023-01-16T18:29:42;14.50;58.10
67870;DHT22;54673;52.262;6.830;2023-01-16T18:32:10;14.50;58.10
67870;DHT22;54673;52.262;6.830;2023-01-16T18:35:06;14.50;58.20
67870;DHT22;54673;52.262;6.830;2023-01-16T18:37:33;14.50;58.10